createdAt,value
2016-03-16T00:00:41.856Z,17.52
2016-03-16T00:01:41.937Z,17.48
2016-03-16T00:02:41.987Z,17.6
2016-03-16T00:03:42.036Z,17.54
2016-03-16T00:04:42.101Z,17.48
2016-03-16T00:05:42.119Z,17.46
2016-03-16T00:06:42.200Z,17.49
2016-03-16T00:07:42.233Z,17.49
2016-03-16T00:08:42.361Z,17.52
2016-03-16T00:09:42.349Z,17.45
2016-03-16T00:10:42.383Z,17.48
2016-03-16T00:11:42.402Z,17.49
2016-03-16T00:12:42.513Z,17.49
2016-03-16T00:13:42.547Z,17.56
2016-03-16T00:14:42.597Z,17.52
2016-03-16T00:15:42.647Z,17.59
2016-03-16T00:16:42.680Z,17.49
2016-03-16T00:17:42.746Z,17.57
2016-03-16T00:18:42.795Z,17.46
2016-03-16T00:19:42.804Z,17.49
2016-03-16T00:20:42.873Z,17.51
2016-03-16T00:21:42.926Z,17.45
2016-03-16T00:22:42.933Z,17.46
2016-03-16T00:23:42.986Z,17.51
2016-03-16T00:24:43.061Z,17.44
2016-03-16T00:25:43.059Z,17.49
2016-03-16T00:26:43.121Z,17.57
2016-03-16T00:27:43.181Z,17.52
2016-03-16T00:28:43.196Z,17.49
2016-03-16T00:29:43.290Z,17.46
2016-03-16T00:30:43.294Z,17.49
2016-03-16T00:31:43.389Z,17.51
2016-03-16T00:32:43.266Z,17.54
2016-03-16T00:33:43.313Z,17.51
2016-03-16T00:34:43.519Z,17.52
2016-03-16T00:35:43.584Z,17.44
2016-03-16T00:36:43.446Z,17.46
2016-03-16T00:37:43.667Z,17.44
2016-03-16T00:38:43.716Z,17.45
2016-03-16T00:39:43.765Z,17.44
2016-03-16T00:40:43.783Z,17.42
2016-03-16T00:41:43.879Z,17.54
2016-03-16T00:42:43.912Z,17.42
2016-03-16T00:43:43.962Z,17.39
2016-03-16T00:44:44.011Z,17.45
2016-03-16T00:45:44.061Z,17.38
2016-03-16T00:46:44.110Z,17.45
2016-03-16T00:47:44.175Z,17.46
2016-03-16T00:48:44.225Z,17.46
2016-03-16T00:49:44.244Z,17.39
2016-03-16T00:50:44.308Z,17.41
2016-03-16T00:51:44.374Z,17.44
2016-03-16T00:52:44.424Z,17.44
2016-03-16T00:53:44.457Z,17.41
2016-03-16T00:54:44.522Z,17.45
2016-03-16T00:55:44.588Z,17.44
2016-03-16T00:56:44.652Z,17.45
2016-03-16T00:57:44.671Z,17.56
2016-03-16T00:58:44.722Z,17.48
2016-03-16T00:59:44.818Z,17.44
2016-03-16T01:00:44.821Z,17.46
2016-03-16T01:01:44.869Z,17.42
2016-03-16T01:02:44.951Z,17.33
2016-03-16T01:03:44.969Z,17.34
2016-03-16T01:04:45.003Z,17.49
2016-03-16T01:05:45.099Z,17.46
2016-03-16T01:06:45.133Z,17.48
2016-03-16T01:07:45.186Z,17.38
2016-03-16T01:08:45.205Z,17.41
2016-03-16T01:09:45.269Z,17.31
2016-03-16T01:10:45.334Z,17.46
2016-03-16T01:11:45.368Z,17.52
2016-03-16T01:12:45.418Z,17.44
2016-03-16T01:13:45.487Z,17.48
2016-03-16T01:14:45.381Z,17.34
2016-03-16T01:15:45.571Z,17.36
2016-03-16T01:16:45.652Z,17.39
2016-03-16T01:17:45.687Z,17.44
2016-03-16T01:18:45.736Z,17.38
2016-03-16T01:19:45.801Z,17.31
2016-03-16T01:20:45.850Z,17.31
2016-03-16T01:21:45.901Z,17.31
2016-03-16T01:22:45.965Z,17.36
2016-03-16T01:23:46.015Z,17.39
2016-03-16T01:24:45.300Z,17.38
2016-03-16T01:25:46.130Z,17.38
2016-03-16T01:26:46.180Z,17.38
2016-03-16T01:27:46.214Z,17.33
2016-03-16T01:28:46.263Z,17.34
2016-03-16T01:29:46.281Z,17.39
2016-03-16T01:30:46.346Z,17.36
2016-03-16T01:31:46.427Z,17.36
2016-03-16T01:32:46.430Z,17.29
2016-03-16T01:33:46.495Z,17.29
2016-03-16T01:34:46.529Z,17.29
2016-03-16T01:35:46.610Z,17.27
2016-03-16T01:36:46.660Z,17.33
2016-03-16T01:37:46.710Z,17.36
2016-03-16T01:38:46.758Z,17.39
2016-03-16T01:39:46.824Z,17.36
2016-03-16T01:40:46.843Z,17.26
2016-03-16T01:41:46.938Z,17.27
2016-03-16T01:42:46.973Z,17.27
2016-03-16T01:43:46.990Z,17.3
2016-03-16T01:44:47.040Z,17.29
2016-03-16T01:45:47.106Z,17.26
2016-03-16T01:46:47.154Z,17.34
2016-03-16T01:47:47.220Z,17.27
2016-03-16T01:48:47.254Z,17.24
2016-03-16T01:49:47.320Z,17.23
2016-03-16T01:50:47.525Z,17.27
2016-03-16T01:51:47.403Z,17.23
2016-03-16T01:52:47.468Z,17.31
2016-03-16T01:53:47.534Z,17.31
2016-03-16T01:54:47.583Z,17.27
2016-03-16T01:55:47.601Z,17.27
2016-03-16T01:56:47.682Z,17.24
2016-03-16T01:57:47.748Z,17.27
2016-03-16T01:58:47.781Z,17.3
2016-03-16T01:59:47.800Z,17.23
2016-03-16T02:00:47.865Z,17.26
2016-03-16T02:01:47.945Z,17.24
2016-03-16T02:02:47.964Z,17.19
2016-03-16T02:03:47.998Z,17.27
2016-03-16T02:04:48.094Z,17.24
2016-03-16T02:05:48.144Z,17.23
2016-03-16T02:06:48.162Z,17.23
2016-03-16T02:07:48.242Z,17.22
2016-03-16T02:08:48.292Z,17.16
2016-03-16T02:09:48.326Z,17.29
2016-03-16T02:10:48.375Z,17.22
2016-03-16T02:11:48.440Z,17.29
2016-03-16T02:12:48.490Z,17.29
2016-03-16T02:13:48.524Z,17.24
2016-03-16T02:14:48.573Z,17.2
2016-03-16T02:15:48.653Z,17.2
2016-03-16T02:16:48.704Z,17.2
2016-03-16T02:17:48.738Z,17.27
2016-03-16T02:18:48.803Z,17.22
2016-03-16T02:19:48.836Z,17.19
2016-03-16T02:20:48.857Z,17.15
2016-03-16T02:21:48.921Z,17.2
2016-03-16T02:22:48.987Z,17.16
2016-03-16T02:23:49.020Z,17.29
2016-03-16T02:24:49.086Z,17.23
2016-03-16T02:25:49.151Z,17.24
2016-03-16T02:26:49.169Z,17.26
2016-03-16T02:27:49.234Z,17.24
2016-03-16T02:28:49.299Z,17.2
2016-03-16T02:29:49.334Z,17.27
2016-03-16T02:30:49.367Z,17.31
2016-03-16T02:31:49.448Z,17.27
2016-03-16T02:32:49.514Z,17.29
2016-03-16T02:33:49.516Z,17.29
2016-03-16T02:34:49.597Z,17.27
2016-03-16T02:35:49.662Z,17.22
2016-03-16T02:36:49.681Z,17.16
2016-03-16T02:37:49.808Z,17.24
2016-03-16T02:38:49.780Z,17.19
2016-03-16T02:39:49.876Z,17.15
2016-03-16T02:40:49.910Z,17.16
2016-03-16T02:41:49.944Z,17.14
2016-03-16T02:42:50.025Z,17.22
2016-03-16T02:43:50.058Z,17.22
2016-03-16T02:44:50.108Z,17.16
2016-03-16T02:45:50.142Z,17.23
2016-03-16T02:46:50.223Z,17.2
2016-03-16T02:47:50.256Z,17.22
2016-03-16T02:48:50.291Z,17.14
2016-03-16T02:49:50.356Z,17.22
2016-03-16T02:50:50.421Z,17.19
2016-03-16T02:51:50.470Z,17.2
2016-03-16T02:52:50.489Z,17.22
2016-03-16T02:53:50.539Z,17.19
2016-03-16T02:54:50.635Z,17.2
2016-03-16T02:55:50.638Z,17.16
2016-03-16T02:56:50.703Z,17.2
2016-03-16T02:57:50.800Z,17.19
2016-03-16T02:58:50.802Z,17.14
2016-03-16T02:59:50.867Z,17.14
2016-03-16T03:00:50.917Z,17.14
2016-03-16T03:01:50.967Z,17.22
2016-03-16T03:02:51.000Z,17.2
2016-03-16T03:03:51.080Z,17.2
2016-03-16T03:04:51.099Z,17.14
2016-03-16T03:05:50.274Z,17.16
2016-03-16T03:06:51.214Z,17.16
2016-03-16T03:07:51.247Z,17.12
2016-03-16T03:08:51.344Z,17.15
2016-03-16T03:09:51.378Z,17.11
2016-03-16T03:10:51.475Z,17.22
2016-03-16T03:11:51.462Z,17.14
2016-03-16T03:12:51.527Z,17.15
2016-03-16T03:13:51.577Z,17.2
2016-03-16T03:14:51.627Z,17.2
2016-03-16T03:15:51.676Z,17.19
2016-03-16T03:16:51.725Z,17.19
2016-03-16T03:17:51.775Z,17.09
2016-03-16T03:18:51.840Z,17.15
2016-03-16T03:19:51.874Z,17.11
2016-03-16T03:20:51.924Z,17.22
2016-03-16T03:21:51.989Z,17.09
2016-03-16T03:22:52.038Z,17.19
2016-03-16T03:23:52.088Z,17.22
2016-03-16T03:24:52.153Z,17.11
2016-03-16T03:25:52.218Z,17.19
2016-03-16T03:26:52.221Z,17.12
2016-03-16T03:27:52.317Z,17.12
2016-03-16T03:28:52.320Z,17.2
2016-03-16T03:29:52.386Z,17.19
2016-03-16T03:30:52.435Z,17.12
2016-03-16T03:31:52.469Z,17.05
2016-03-16T03:32:52.550Z,17.06
2016-03-16T03:33:52.600Z,17.14
2016-03-16T03:34:52.634Z,17.11
2016-03-16T03:35:52.714Z,17.12
2016-03-16T03:36:52.747Z,17.08
2016-03-16T03:37:52.798Z,17.09
2016-03-16T03:38:52.831Z,17.11
2016-03-16T03:39:52.896Z,17.16
2016-03-16T03:40:52.946Z,17.2
2016-03-16T03:41:52.996Z,17.12
2016-03-16T03:42:53.030Z,17.19
2016-03-16T03:43:53.126Z,17.11
2016-03-16T03:44:53.160Z,17.2
2016-03-16T03:45:53.179Z,17.11
2016-03-16T03:46:53.244Z,17.19
2016-03-16T03:47:53.293Z,17.05
2016-03-16T03:48:53.343Z,17.11
2016-03-16T03:49:53.393Z,17.16
2016-03-16T03:50:53.442Z,17.16
2016-03-16T03:51:53.491Z,17.14
2016-03-16T03:52:53.540Z,17.11
2016-03-16T03:53:53.606Z,17.11
2016-03-16T03:54:53.655Z,17.11
2016-03-16T03:55:53.705Z,17.15
2016-03-16T03:56:53.739Z,17.05
2016-03-16T03:57:53.789Z,17.11
2016-03-16T03:58:53.839Z,17.12
2016-03-16T03:59:53.887Z,17.08
2016-03-16T04:00:53.937Z,17.09
2016-03-16T04:01:54.003Z,17.11
2016-03-16T04:02:54.037Z,17.11
2016-03-16T04:03:54.086Z,17.15
2016-03-16T04:04:54.166Z,17.09
2016-03-16T04:05:54.200Z,17.09
2016-03-16T04:06:54.250Z,17.08
2016-03-16T04:07:54.315Z,17.04
2016-03-16T04:08:54.365Z,17.04
2016-03-16T04:09:54.399Z,17.09
2016-03-16T04:10:54.480Z,17.05
2016-03-16T04:11:54.514Z,17.11
2016-03-16T04:12:54.547Z,17.12
2016-03-16T04:13:54.597Z,17.12
2016-03-16T04:14:54.662Z,17.09
2016-03-16T04:15:54.712Z,17.04
2016-03-16T04:16:54.746Z,17.09
2016-03-16T04:17:54.810Z,16.99
2016-03-16T04:18:54.860Z,16.96
2016-03-16T04:19:54.926Z,16.97
2016-03-16T04:20:54.960Z,17.05
2016-03-16T04:21:54.993Z,17.09
2016-03-16T04:22:55.075Z,17.05
2016-03-16T04:23:55.109Z,16.94
2016-03-16T04:24:55.158Z,17.02
2016-03-16T04:25:55.223Z,16.96
2016-03-16T04:26:55.289Z,17.01
2016-03-16T04:27:55.307Z,16.97
2016-03-16T04:28:55.372Z,16.99
2016-03-16T04:29:55.406Z,17.04
2016-03-16T04:30:55.456Z,17.05
2016-03-16T04:31:55.537Z,16.96
2016-03-16T04:32:55.570Z,17.01
2016-03-16T04:33:55.636Z,16.96
2016-03-16T04:34:55.686Z,16.97
2016-03-16T04:35:55.719Z,17.02
2016-03-16T04:36:55.784Z,17.04
2016-03-16T04:37:55.818Z,16.96
2016-03-16T04:38:55.868Z,16.96
2016-03-16T04:39:55.933Z,16.97
2016-03-16T04:40:55.983Z,16.97
2016-03-16T04:41:56.016Z,16.97
2016-03-16T04:42:56.066Z,16.97
2016-03-16T04:43:56.147Z,16.94
2016-03-16T04:44:56.181Z,16.99
2016-03-16T04:45:56.230Z,16.93
2016-03-16T04:46:56.264Z,17.02
2016-03-16T04:47:56.329Z,17.02
2016-03-16T04:48:56.426Z,17.01
2016-03-16T04:49:56.413Z,16.99
2016-03-16T04:50:56.494Z,16.93
2016-03-16T04:51:56.543Z,16.94
2016-03-16T04:52:56.577Z,16.93
2016-03-16T04:53:56.626Z,16.9
2016-03-16T04:54:56.707Z,17.01
2016-03-16T04:55:55.976Z,16.83
2016-03-16T04:56:56.776Z,16.93
2016-03-16T04:57:56.856Z,16.94
2016-03-16T04:58:56.734Z,16.91
2016-03-16T04:59:56.940Z,16.9
2016-03-16T05:00:57.005Z,16.97
2016-03-16T05:01:57.039Z,16.91
2016-03-16T05:02:57.104Z,16.89
2016-03-16T05:03:57.139Z,16.87
2016-03-16T05:04:57.203Z,16.97
2016-03-16T05:05:57.237Z,16.89
2016-03-16T05:06:57.308Z,16.99
2016-03-16T05:07:57.358Z,16.93
2016-03-16T05:08:57.392Z,16.94
2016-03-16T05:09:57.442Z,16.94
2016-03-16T05:10:57.506Z,16.86
2016-03-16T05:11:57.540Z,16.94
2016-03-16T05:12:57.621Z,16.86
2016-03-16T05:13:57.499Z,16.81
2016-03-16T05:14:57.705Z,16.96
2016-03-16T05:15:57.770Z,16.84
2016-03-16T05:16:57.789Z,16.91
2016-03-16T05:17:57.838Z,16.89
2016-03-16T05:18:57.919Z,16.86
2016-03-16T05:19:57.952Z,16.87
2016-03-16T05:20:58.002Z,16.89
2016-03-16T05:21:58.067Z,16.86
2016-03-16T05:22:58.116Z,16.83
2016-03-16T05:23:58.151Z,16.87
2016-03-16T05:24:58.185Z,16.89
2016-03-16T05:25:58.235Z,16.86
2016-03-16T05:26:58.316Z,16.87
2016-03-16T05:27:58.349Z,16.79
2016-03-16T05:28:58.415Z,16.86
2016-03-16T05:29:58.463Z,16.87
2016-03-16T05:30:58.513Z,16.91
2016-03-16T05:31:58.532Z,16.83
2016-03-16T05:32:58.628Z,16.9
2016-03-16T05:33:58.662Z,16.87
2016-03-16T05:34:58.712Z,16.9
2016-03-16T05:35:58.745Z,16.9
2016-03-16T05:36:58.795Z,16.91
2016-03-16T05:37:58.845Z,16.89
2016-03-16T05:38:58.895Z,16.89
2016-03-16T05:39:58.945Z,16.91
2016-03-16T05:40:59.025Z,16.89
2016-03-16T05:41:59.043Z,16.9
2016-03-16T05:42:59.108Z,16.89
2016-03-16T05:43:59.033Z,16.89
2016-03-16T05:44:59.223Z,16.86
2016-03-16T05:45:59.256Z,16.9
2016-03-16T05:46:59.322Z,16.89
2016-03-16T05:47:59.371Z,16.9
2016-03-16T05:48:59.405Z,16.91
2016-03-16T05:49:59.471Z,16.86
2016-03-16T05:50:59.505Z,16.89
2016-03-16T05:51:59.570Z,16.94
2016-03-16T05:52:59.588Z,16.86
2016-03-16T05:53:59.685Z,16.78
2016-03-16T05:54:59.734Z,16.87
2016-03-16T05:55:59.768Z,16.86
2016-03-16T05:56:59.818Z,16.84
2016-03-16T05:57:59.883Z,16.87
2016-03-16T05:58:59.964Z,16.86
2016-03-16T05:59:59.983Z,16.81
2016-03-16T06:01:00.063Z,16.87
2016-03-16T06:02:00.050Z,16.91
2016-03-16T06:03:00.116Z,16.86
2016-03-16T06:04:00.149Z,16.86
2016-03-16T06:05:00.230Z,16.87
2016-03-16T06:06:00.295Z,16.86
2016-03-16T06:07:00.313Z,16.84
2016-03-16T06:08:00.362Z,16.84
2016-03-16T06:09:00.428Z,16.83
2016-03-16T06:10:00.446Z,16.79
2016-03-16T06:11:00.527Z,16.94
2016-03-16T06:12:00.593Z,16.9
2016-03-16T06:13:00.626Z,16.83
2016-03-16T06:14:00.692Z,16.89
2016-03-16T06:15:00.695Z,16.89
2016-03-16T06:16:00.806Z,16.84
2016-03-16T06:17:00.809Z,16.94
2016-03-16T06:18:00.874Z,16.87
2016-03-16T06:19:00.939Z,16.89
2016-03-16T06:20:01.005Z,16.83
2016-03-16T06:21:01.007Z,16.87
2016-03-16T06:22:01.088Z,16.83
2016-03-16T06:23:01.153Z,16.86
2016-03-16T06:24:01.171Z,16.78
2016-03-16T06:25:01.222Z,16.72
2016-03-16T06:26:01.286Z,16.46
2016-03-16T06:27:01.336Z,16.24
2016-03-16T06:28:01.370Z,16.02
2016-03-16T06:29:01.436Z,15.83
2016-03-16T06:30:01.468Z,15.59
2016-03-16T06:31:01.549Z,15.37
2016-03-16T06:32:01.584Z,15.31
2016-03-16T06:33:01.618Z,15.28
2016-03-16T06:34:01.730Z,15.36
2016-03-16T06:35:01.717Z,15.44
2016-03-16T06:36:01.970Z,15.47
2016-03-16T06:37:01.847Z,15.52
2016-03-16T06:38:01.882Z,15.65
2016-03-16T06:39:01.931Z,15.72
2016-03-16T06:40:01.995Z,15.84
2016-03-16T06:41:02.029Z,15.97
2016-03-16T06:42:02.126Z,15.97
2016-03-16T06:43:02.128Z,16.12
2016-03-16T06:44:02.210Z,16.2
2016-03-16T06:45:02.228Z,16.26
2016-03-16T06:46:02.293Z,16.26
2016-03-16T06:47:02.312Z,16.46
2016-03-16T06:48:02.470Z,16.41
2016-03-16T06:49:02.458Z,16.5
2016-03-16T06:50:02.475Z,16.58
2016-03-16T06:51:02.525Z,16.58
2016-03-16T06:52:02.606Z,16.69
2016-03-16T06:53:02.609Z,16.71
2016-03-16T06:54:02.690Z,16.74
2016-03-16T06:55:02.708Z,16.76
2016-03-16T06:56:02.774Z,16.78
2016-03-16T06:57:02.838Z,16.83
2016-03-16T06:58:02.872Z,16.87
2016-03-16T06:59:02.781Z,16.87
2016-03-16T07:00:02.971Z,16.94
2016-03-16T07:01:03.021Z,16.94
2016-03-16T07:02:03.055Z,17.02
2016-03-16T07:03:03.152Z,16.93
2016-03-16T07:04:03.171Z,16.99
2016-03-16T07:05:03.219Z,17.04
2016-03-16T07:06:03.285Z,17.09
2016-03-16T07:07:03.335Z,17.11
2016-03-16T07:08:03.384Z,17.08
2016-03-16T07:09:03.418Z,17.15
2016-03-16T07:10:03.467Z,17.2
2016-03-16T07:11:03.548Z,17.16
2016-03-16T07:12:03.441Z,17.24
2016-03-16T07:13:03.631Z,17.23
2016-03-16T07:14:03.743Z,17.22
2016-03-16T07:15:03.745Z,17.27
2016-03-16T07:16:03.780Z,17.38
2016-03-16T07:17:03.861Z,17.34
2016-03-16T07:18:03.911Z,17.36
2016-03-16T07:19:03.945Z,17.3
2016-03-16T07:20:03.963Z,17.36
2016-03-16T07:21:04.044Z,17.42
2016-03-16T07:22:04.077Z,17.44
2016-03-16T07:23:04.189Z,17.49
2016-03-16T07:24:04.177Z,17.52
2016-03-16T07:25:04.258Z,17.45
2016-03-16T07:26:04.276Z,17.56
2016-03-16T07:27:04.342Z,17.65
2016-03-16T07:28:04.422Z,17.65
2016-03-16T07:29:04.456Z,17.78
2016-03-16T07:30:04.505Z,17.86
2016-03-16T07:31:04.555Z,17.78
2016-03-16T07:32:04.588Z,17.87
2016-03-16T07:33:04.654Z,17.98
2016-03-16T07:34:04.688Z,18.05
2016-03-16T07:35:04.753Z,18.2
2016-03-16T07:36:04.802Z,18.7
2016-03-16T07:37:04.837Z,19.14
2016-03-16T07:38:04.918Z,19.66
2016-03-16T07:39:04.968Z,20.16
2016-03-16T07:40:05.001Z,20.65
2016-03-16T07:41:05.051Z,20.95
2016-03-16T07:42:05.131Z,21.3
2016-03-16T07:43:05.150Z,21.57
2016-03-16T07:44:05.214Z,21.79
2016-03-16T07:45:05.264Z,21.96
2016-03-16T07:46:05.298Z,21.99
2016-03-16T07:47:05.363Z,21.99
2016-03-16T07:48:05.397Z,21.95
2016-03-16T07:49:05.478Z,21.95
2016-03-16T07:50:05.528Z,22.02
2016-03-16T07:51:05.547Z,21.99
2016-03-16T07:52:05.627Z,22.04
2016-03-16T07:53:05.677Z,21.72
2016-03-16T07:54:05.741Z,21.4
2016-03-16T07:55:05.807Z,21.09
2016-03-16T07:56:05.841Z,20.82
2016-03-16T07:57:05.875Z,20.65
2016-03-16T07:58:05.987Z,20.62
2016-03-16T07:59:05.975Z,20.5
2016-03-16T08:00:06.055Z,20.59
2016-03-16T08:01:06.105Z,20.56
2016-03-16T08:02:06.138Z,20.78
2016-03-16T08:03:06.204Z,20.96
2016-03-16T08:04:06.268Z,21.21
2016-03-16T08:05:06.302Z,21.73
2016-03-16T08:06:06.368Z,22.08
2016-03-16T08:07:06.429Z,22.47
2016-03-16T08:08:06.448Z,22.7
2016-03-16T08:09:06.513Z,22.96
2016-03-16T08:10:06.672Z,23.23
2016-03-16T08:11:06.611Z,23.43
2016-03-16T08:12:06.692Z,23.41
2016-03-16T08:13:06.727Z,23.51
2016-03-16T08:14:06.776Z,23.56
2016-03-16T08:15:06.841Z,23.51
2016-03-16T08:16:06.875Z,23.56
2016-03-16T08:17:06.925Z,23.23
2016-03-16T08:18:07.005Z,22.81
2016-03-16T08:19:07.040Z,22.23
2016-03-16T08:20:07.136Z,22.26
2016-03-16T08:21:07.139Z,22.06
2016-03-16T08:22:07.282Z,21.58
2016-03-16T08:23:07.237Z,20.92
2016-03-16T08:24:07.303Z,20.51
2016-03-16T08:25:07.368Z,19.95
2016-03-16T08:26:07.418Z,19.55
2016-03-16T08:27:07.452Z,19.15
2016-03-16T08:28:07.501Z,19.08
2016-03-16T08:29:07.582Z,18.75
2016-03-16T08:30:07.616Z,18.52
2016-03-16T08:31:07.665Z,18.44
2016-03-16T08:32:07.715Z,18.28
2016-03-16T08:33:07.781Z,18.16
2016-03-16T08:34:07.798Z,18.1
2016-03-16T08:35:07.864Z,17.89
2016-03-16T08:36:07.898Z,17.78
2016-03-16T08:37:07.978Z,17.76
2016-03-16T08:38:08.028Z,17.76
2016-03-16T08:39:08.062Z,17.6
2016-03-16T08:40:08.142Z,17.59
2016-03-16T08:41:08.177Z,17.48
2016-03-16T08:42:08.226Z,17.48
2016-03-16T08:43:08.275Z,17.48
2016-03-16T08:44:08.341Z,17.45
2016-03-16T08:45:08.375Z,17.39
2016-03-16T08:46:08.440Z,17.38
2016-03-16T08:47:08.491Z,17.36
2016-03-16T08:48:08.524Z,17.19
2016-03-16T08:49:08.589Z,17.24
2016-03-16T08:50:08.638Z,17.19
2016-03-16T08:51:08.688Z,17.05
2016-03-16T08:52:08.738Z,16.97
2016-03-16T08:53:08.787Z,16.96
2016-03-16T08:54:08.852Z,16.9
2016-03-16T08:55:08.902Z,16.87
2016-03-16T08:56:08.921Z,16.81
2016-03-16T08:57:08.985Z,16.91
2016-03-16T08:58:09.051Z,16.97
2016-03-16T08:59:08.335Z,16.83
2016-03-16T09:00:09.150Z,16.81
2016-03-16T09:01:09.246Z,16.86
2016-03-16T09:02:09.234Z,16.79
2016-03-16T09:03:09.314Z,16.83
2016-03-16T09:04:09.348Z,16.76
2016-03-16T09:05:09.428Z,16.69
2016-03-16T09:06:09.463Z,16.79
2016-03-16T09:07:09.564Z,16.72
2016-03-16T09:08:09.567Z,16.69
2016-03-16T09:09:09.617Z,16.68
2016-03-16T09:10:09.666Z,16.71
2016-03-16T09:11:09.700Z,16.65
2016-03-16T09:12:09.765Z,16.65
2016-03-16T09:13:09.814Z,16.68
2016-03-16T09:14:09.849Z,16.58
2016-03-16T09:15:09.913Z,16.65
2016-03-16T09:16:09.994Z,16.53
2016-03-16T09:17:09.997Z,16.65
2016-03-16T09:18:10.093Z,16.69
2016-03-16T09:19:10.127Z,16.58
2016-03-16T09:20:10.161Z,16.58
2016-03-16T09:21:10.213Z,16.58
2016-03-16T09:22:10.279Z,16.61
2016-03-16T09:23:10.298Z,16.58
2016-03-16T09:24:10.363Z,16.58
2016-03-16T09:25:10.550Z,16.61
2016-03-16T09:26:10.529Z,16.75
2016-03-16T09:27:11.435Z,16.57
2016-03-16T09:28:10.361Z,16.61
2016-03-16T09:29:11.104Z,16.65
2016-03-16T09:30:35.029Z,16.71
2016-03-16T09:31:10.699Z,16.66
2016-03-16T09:32:10.697Z,16.68
2016-03-16T09:33:10.757Z,16.66
2016-03-16T09:34:10.818Z,16.65
2016-03-16T09:35:10.817Z,16.6
2016-03-16T09:36:10.880Z,16.64
2016-03-16T09:37:10.943Z,16.65
2016-03-16T09:38:10.959Z,16.68
2016-03-16T09:39:11.022Z,16.68
2016-03-16T09:40:11.054Z,16.69
2016-03-16T09:41:10.370Z,16.66
2016-03-16T09:42:11.168Z,16.66
2016-03-16T09:43:11.217Z,16.71
2016-03-16T09:44:11.296Z,16.66
2016-03-16T09:45:11.331Z,16.64
2016-03-16T09:46:11.349Z,16.64
2016-03-16T09:47:11.429Z,16.69
2016-03-16T09:48:11.479Z,16.75
2016-03-16T09:49:11.514Z,16.76
2016-03-16T09:50:11.562Z,16.75
2016-03-16T09:51:11.644Z,16.76
2016-03-16T09:52:11.724Z,16.72
2016-03-16T09:53:11.727Z,16.69
2016-03-16T09:54:11.777Z,16.75
2016-03-16T09:55:11.825Z,16.79
2016-03-16T09:56:11.892Z,16.79
2016-03-16T09:57:11.909Z,16.83
2016-03-16T09:58:11.991Z,16.81
2016-03-16T09:59:12.024Z,16.83
2016-03-16T10:00:12.074Z,16.72
2016-03-16T10:01:12.107Z,16.71
2016-03-16T10:02:12.033Z,16.76
2016-03-16T10:03:12.207Z,16.74
2016-03-16T10:04:12.271Z,16.76
2016-03-16T10:05:12.321Z,16.69
2016-03-16T10:06:12.371Z,16.69
2016-03-16T10:07:12.420Z,16.74
2016-03-16T10:08:12.471Z,16.78
2016-03-16T10:09:12.520Z,16.71
2016-03-16T10:10:12.584Z,16.69
2016-03-16T10:11:12.619Z,16.75
2016-03-16T10:12:12.668Z,16.83
2016-03-16T10:13:12.734Z,16.74
2016-03-16T10:14:12.798Z,16.76
2016-03-16T10:15:12.818Z,16.76
2016-03-16T10:16:12.898Z,16.78
2016-03-16T10:17:12.948Z,16.66
2016-03-16T10:18:12.998Z,16.68
2016-03-16T10:19:13.031Z,16.72
2016-03-16T10:20:13.081Z,16.65
2016-03-16T10:21:13.145Z,16.75
2016-03-16T10:22:13.165Z,16.68
2016-03-16T10:23:13.245Z,16.66
2016-03-16T10:24:13.295Z,16.61
2016-03-16T10:25:13.328Z,16.68
2016-03-16T10:26:13.363Z,16.71
2016-03-16T10:27:13.444Z,16.61
2016-03-16T10:28:13.508Z,16.68
2016-03-16T10:29:13.527Z,16.56
2016-03-16T10:30:13.577Z,16.68
2016-03-16T10:31:13.626Z,16.68
2016-03-16T10:32:13.691Z,16.56
2016-03-16T10:33:13.741Z,16.58
2016-03-16T10:34:13.774Z,16.65
2016-03-16T10:35:13.840Z,16.54
2016-03-16T10:36:13.936Z,16.6
2016-03-16T10:37:13.924Z,16.5
2016-03-16T10:38:13.973Z,16.64
2016-03-16T10:39:14.038Z,16.6
2016-03-16T10:40:14.071Z,16.56
2016-03-16T10:41:14.137Z,16.6
2016-03-16T10:42:14.202Z,16.51
2016-03-16T10:43:14.220Z,16.61
2016-03-16T10:44:14.286Z,16.58
2016-03-16T10:45:14.320Z,16.53
2016-03-16T10:46:14.400Z,16.58
2016-03-16T10:47:14.434Z,16.47
2016-03-16T10:48:14.484Z,16.5
2016-03-16T10:49:14.518Z,16.47
2016-03-16T10:50:14.598Z,16.5
2016-03-16T10:51:14.649Z,16.51
2016-03-16T10:52:14.698Z,16.49
2016-03-16T10:53:14.764Z,16.42
2016-03-16T10:54:14.813Z,16.47
2016-03-16T10:55:14.862Z,16.42
2016-03-16T10:56:14.897Z,16.51
2016-03-16T10:57:14.962Z,16.41
2016-03-16T10:58:14.980Z,16.5
2016-03-16T10:59:15.045Z,16.49
2016-03-16T11:00:15.110Z,16.39
2016-03-16T11:01:15.129Z,16.51
2016-03-16T11:02:15.178Z,16.41
2016-03-16T11:03:15.259Z,16.46
2016-03-16T11:04:15.278Z,16.47
2016-03-16T11:05:15.358Z,16.43
2016-03-16T11:06:15.439Z,16.46
2016-03-16T11:07:15.441Z,16.35
2016-03-16T11:08:15.491Z,16.42
2016-03-16T11:09:15.557Z,16.47
2016-03-16T11:10:15.575Z,16.42
2016-03-16T11:11:15.640Z,16.39
2016-03-16T11:12:15.690Z,16.49
2016-03-16T11:13:15.740Z,16.46
2016-03-16T11:14:15.788Z,16.43
2016-03-16T11:15:15.854Z,16.43
2016-03-16T11:16:15.888Z,16.41
2016-03-16T11:17:15.954Z,16.47
2016-03-16T11:18:16.003Z,16.42
2016-03-16T11:19:16.037Z,16.41
2016-03-16T11:20:16.087Z,16.5
2016-03-16T11:21:16.151Z,16.5
2016-03-16T11:22:16.170Z,16.39
2016-03-16T11:23:16.250Z,16.47
2016-03-16T11:24:16.285Z,16.5
2016-03-16T11:25:16.350Z,16.47
2016-03-16T11:26:16.399Z,16.46
2016-03-16T11:27:16.433Z,16.43
2016-03-16T11:28:16.498Z,16.42
2016-03-16T11:29:16.548Z,16.46
2016-03-16T11:30:16.582Z,16.43
2016-03-16T11:31:16.632Z,16.5
2016-03-16T11:32:15.947Z,16.42
2016-03-16T11:33:16.731Z,16.39
2016-03-16T11:34:16.780Z,16.46
2016-03-16T11:35:16.844Z,16.47
2016-03-16T11:36:16.895Z,16.42
2016-03-16T11:37:16.944Z,16.36
2016-03-16T11:38:16.978Z,16.39
2016-03-16T11:39:17.043Z,16.35
2016-03-16T11:40:17.094Z,16.46
2016-03-16T11:41:17.127Z,16.46
2016-03-16T11:42:17.192Z,16.47
2016-03-16T11:43:17.258Z,16.5
2016-03-16T11:44:17.276Z,16.41
2016-03-16T11:45:17.341Z,16.38
2016-03-16T11:46:17.390Z,16.42
2016-03-16T11:47:17.424Z,16.41
2016-03-16T11:48:17.505Z,16.43
2016-03-16T11:49:17.540Z,16.46
2016-03-16T11:50:17.604Z,16.43
2016-03-16T11:51:17.638Z,16.42
2016-03-16T11:52:17.673Z,16.42
2016-03-16T11:53:17.737Z,16.46
2016-03-16T11:54:17.787Z,16.47
2016-03-16T11:55:17.836Z,16.42
2016-03-16T11:56:17.887Z,16.41
2016-03-16T11:57:17.951Z,16.43
2016-03-16T11:58:17.986Z,16.46
2016-03-16T11:59:18.034Z,16.49
2016-03-16T12:00:18.147Z,16.47
2016-03-16T12:01:18.134Z,16.39
2016-03-16T12:02:18.214Z,16.39
2016-03-16T12:03:18.249Z,16.42
2016-03-16T12:04:18.283Z,16.47
2016-03-16T12:05:18.348Z,16.41
2016-03-16T12:06:18.397Z,16.36
2016-03-16T12:07:18.447Z,16.36
2016-03-16T12:08:18.513Z,16.36
2016-03-16T12:09:18.561Z,16.49
2016-03-16T12:10:18.580Z,16.39
2016-03-16T12:11:18.630Z,16.46
2016-03-16T12:12:18.694Z,16.42
2016-03-16T12:13:18.729Z,16.46
2016-03-16T12:14:18.654Z,16.42
2016-03-16T12:15:18.859Z,16.5
2016-03-16T12:16:18.909Z,16.49
2016-03-16T12:17:18.943Z,16.41
2016-03-16T12:18:19.008Z,16.41
2016-03-16T12:19:19.057Z,16.36
2016-03-16T12:20:19.091Z,16.42
2016-03-16T12:21:19.141Z,16.41
2016-03-16T12:22:19.206Z,16.5
2016-03-16T12:23:19.256Z,16.46
2016-03-16T12:24:19.289Z,16.47
2016-03-16T12:25:19.183Z,16.38
2016-03-16T12:26:19.389Z,16.42
2016-03-16T12:27:19.470Z,16.49
2016-03-16T12:28:19.503Z,16.46
2016-03-16T12:29:19.537Z,16.46
2016-03-16T12:30:19.665Z,16.51
2016-03-16T12:31:19.653Z,16.46
2016-03-16T12:32:19.686Z,16.46
2016-03-16T12:33:19.751Z,16.41
2016-03-16T12:34:19.801Z,16.43
2016-03-16T12:35:19.866Z,16.51
2016-03-16T12:36:19.884Z,16.43
2016-03-16T12:37:19.965Z,16.46
2016-03-16T12:38:20.000Z,16.47
2016-03-16T12:39:20.049Z,16.53
2016-03-16T12:40:20.099Z,16.42
2016-03-16T12:41:20.163Z,16.42
2016-03-16T12:42:20.182Z,16.41
2016-03-16T12:43:20.263Z,16.43
2016-03-16T12:44:20.313Z,16.47
2016-03-16T12:45:20.190Z,16.51
2016-03-16T12:46:20.410Z,16.49
2016-03-16T12:47:20.477Z,16.43
2016-03-16T12:48:20.495Z,16.47
2016-03-16T12:49:20.544Z,16.49
2016-03-16T12:50:20.609Z,16.53
2016-03-16T12:51:20.660Z,16.46
2016-03-16T12:52:20.724Z,16.46
2016-03-16T12:53:20.759Z,16.56
2016-03-16T12:54:20.807Z,16.51
2016-03-16T12:55:20.857Z,16.57